sensor_id;sensor_type;location;lat;lon;timestamp;pressure;altitude;pressure_sealevel;temperature;humidity
21988;BME280;11158;53.404;-1.510;2023-05-09T00:00:03;100138.16;;;18.12;56.24
21988;BME280;11158;53.404;-1.510;2023-05-09T00:02:49;100133.06;;;18.16;56.94
21988;BME280;11158;53.404;-1.510;2023-05-09T00:05:34;100134.03;;;18.10;56.63
21988;BME280;11158;53.404;-1.510;2023-05-09T00:08:18;100128.53;;;17.93;57.28
21988;BME280;11158;53.404;-1.510;2023-05-09T00:11:02;100124.00;;;17.82;57.81
21988;BME280;11158;53.404;-1.510;2023-05-09T00:13:47;100118.84;;;17.33;59.09
21988;BME280;11158;53.404;-1.510;2023-05-09T00:16:33;100110.03;;;17.37;58.85
21988;BME280;11158;53.404;-1.510;2023-05-09T00:19:19;100109.19;;;17.61;58.12
21988;BME280;11158;53.404;-1.510;2023-05-09T00:22:03;100104.56;;;17.96;57.23
21988;BME280;11158;53.404;-1.510;2023-05-09T00:24:48;100096.31;;;18.03;56.95
21988;BME280;11158;53.404;-1.510;2023-05-09T00:27:32;100097.59;;;18.29;55.82
21988;BME280;11158;53.404;-1.510;2023-05-09T00:30:16;100094.72;;;18.65;54.85
21988;BME280;11158;53.404;-1.510;2023-05-09T00:33:00;100087.56;;;18.75;54.40
21988;BME280;11158;53.404;-1.510;2023-05-09T00:35:44;100085.44;;;18.60;54.45
21988;BME280;11158;53.404;-1.510;2023-05-09T00:38:29;100082.25;;;18.18;56.08
21988;BME280;11158;53.404;-1.510;2023-05-09T00:41:13;100087.97;;;17.29;58.21
21988;BME280;11158;53.404;-1.510;2023-05-09T00:43:57;100093.84;;;18.02;56.67
21988;BME280;11158;53.404;-1.510;2023-05-09T00:46:42;100080.84;;;18.15;56.05
21988;BME280;11158;53.404;-1.510;2023-05-09T00:49:27;100073.25;;;18.29;55.02
21988;BME280;11158;53.404;-1.510;2023-05-09T00:52:11;100071.06;;;18.43;54.68
21988;BME280;11158;53.404;-1.510;2023-05-09T00:54:55;100068.03;;;18.39;54.24
21988;BME280;11158;53.404;-1.510;2023-05-09T00:57:40;100065.34;;;18.11;55.61
21988;BME280;11158;53.404;-1.510;2023-05-09T01:00:25;100066.63;;;18.37;54.73
21988;BME280;11158;53.404;-1.510;2023-05-09T01:03:09;100066.22;;;18.45;54.11
21988;BME280;11158;53.404;-1.510;2023-05-09T01:05:59;100061.47;;;18.52;53.99
21988;BME280;11158;53.404;-1.510;2023-05-09T01:18:05;100053.13;;;18.08;54.90
21988;BME280;11158;53.404;-1.510;2023-05-09T01:21:04;100053.34;;;17.78;55.92
21988;BME280;11158;53.404;-1.510;2023-05-09T01:27:32;100049.69;;;17.96;55.14
21988;BME280;11158;53.404;-1.510;2023-05-09T01:30:23;100048.13;;;17.59;56.30
21988;BME280;11158;53.404;-1.510;2023-05-09T01:33:09;100039.94;;;17.83;55.68
21988;BME280;11158;53.404;-1.510;2023-05-09T01:36:00;100041.84;;;17.83;55.40
21988;BME280;11158;53.404;-1.510;2023-05-09T01:38:47;100031.72;;;18.07;54.53
21988;BME280;11158;53.404;-1.510;2023-05-09T01:41:35;100026.44;;;18.29;53.74
21988;BME280;11158;53.404;-1.510;2023-05-09T01:44:21;100034.38;;;18.18;54.24
21988;BME280;11158;53.404;-1.510;2023-05-09T01:47:07;100031.22;;;17.93;55.16
21988;BME280;11158;53.404;-1.510;2023-05-09T01:49:53;100029.22;;;17.88;55.29
21988;BME280;11158;53.404;-1.510;2023-05-09T01:52:39;100029.97;;;18.12;54.52
21988;BME280;11158;53.404;-1.510;2023-05-09T01:55:28;100019.56;;;17.52;55.90
21988;BME280;11158;53.404;-1.510;2023-05-09T01:58:15;100035.13;;;17.21;57.04
21988;BME280;11158;53.404;-1.510;2023-05-09T02:01:01;100033.16;;;17.05;58.05
21988;BME280;11158;53.404;-1.510;2023-05-09T02:03:47;100031.69;;;16.55;60.28
21988;BME280;11158;53.404;-1.510;2023-05-09T02:06:34;100026.94;;;16.92;59.33
21988;BME280;11158;53.404;-1.510;2023-05-09T02:09:19;100029.50;;;17.23;57.76
21988;BME280;11158;53.404;-1.510;2023-05-09T02:12:04;100030.72;;;17.55;56.57
21988;BME280;11158;53.404;-1.510;2023-05-09T02:14:49;100022.19;;;17.87;55.79
21988;BME280;11158;53.404;-1.510;2023-05-09T02:17:33;100024.44;;;17.26;57.20
21988;BME280;11158;53.404;-1.510;2023-05-09T02:20:18;100017.78;;;16.93;59.05
21988;BME280;11158;53.404;-1.510;2023-05-09T02:23:02;100016.09;;;16.69;59.54
21988;BME280;11158;53.404;-1.510;2023-05-09T02:25:47;100023.19;;;16.93;59.29
21988;BME280;11158;53.404;-1.510;2023-05-09T02:28:31;100025.66;;;17.07;58.62
21988;BME280;11158;53.404;-1.510;2023-05-09T02:31:18;100024.91;;;16.76;59.29
21988;BME280;11158;53.404;-1.510;2023-05-09T02:34:03;100024.19;;;16.69;59.48
21988;BME280;11158;53.404;-1.510;2023-05-09T02:36:49;100026.72;;;16.82;59.24
21988;BME280;11158;53.404;-1.510;2023-05-09T02:39:33;100031.66;;;17.09;57.72
21988;BME280;11158;53.404;-1.510;2023-05-09T02:42:22;100021.16;;;17.12;57.53
21988;BME280;11158;53.404;-1.510;2023-05-09T02:45:08;100021.03;;;17.31;57.07
21988;BME280;11158;53.404;-1.510;2023-05-09T02:47:53;100025.94;;;17.46;56.48
21988;BME280;11158;53.404;-1.510;2023-05-09T02:50:38;100010.50;;;17.58;56.08
21988;BME280;11158;53.404;-1.510;2023-05-09T02:53:25;100007.44;;;17.66;55.44
21988;BME280;11158;53.404;-1.510;2023-05-09T02:56:09;100005.47;;;17.62;55.54
21988;BME280;11158;53.404;-1.510;2023-05-09T02:58:53;99999.66;;;17.70;55.51
21988;BME280;11158;53.404;-1.510;2023-05-09T03:01:38;100005.88;;;17.82;54.84
21988;BME280;11158;53.404;-1.510;2023-05-09T03:04:22;100011.16;;;17.36;56.19
21988;BME280;11158;53.404;-1.510;2023-05-09T03:07:08;100009.88;;;17.39;56.59
21988;BME280;11158;53.404;-1.510;2023-05-09T03:09:52;99992.47;;;17.87;55.19
21988;BME280;11158;53.404;-1.510;2023-05-09T03:12:37;99993.94;;;17.54;55.69
21988;BME280;11158;53.404;-1.510;2023-05-09T03:15:22;99994.16;;;17.93;54.67
21988;BME280;11158;53.404;-1.510;2023-05-09T03:18:06;99991.72;;;17.92;54.63
21988;BME280;11158;53.404;-1.510;2023-05-09T03:20:50;99995.91;;;17.30;56.58
21988;BME280;11158;53.404;-1.510;2023-05-09T03:23:34;99997.16;;;17.80;55.35
21988;BME280;11158;53.404;-1.510;2023-05-09T03:26:18;99997.75;;;17.70;55.58
21988;BME280;11158;53.404;-1.510;2023-05-09T03:29:02;99987.09;;;17.35;57.16
21988;BME280;11158;53.404;-1.510;2023-05-09T03:31:47;99985.03;;;17.54;55.87
21988;BME280;11158;53.404;-1.510;2023-05-09T03:34:31;99985.16;;;17.47;56.55
21988;BME280;11158;53.404;-1.510;2023-05-09T03:37:15;99984.06;;;17.60;56.16
21988;BME280;11158;53.404;-1.510;2023-05-09T03:39:59;99980.81;;;17.87;55.49
21988;BME280;11158;53.404;-1.510;2023-05-09T03:42:43;99983.03;;;17.09;57.85
21988;BME280;11158;53.404;-1.510;2023-05-09T03:45:27;99979.47;;;17.20;57.70
21988;BME280;11158;53.404;-1.510;2023-05-09T03:48:11;99985.63;;;16.92;58.81
21988;BME280;11158;53.404;-1.510;2023-05-09T03:50:55;99982.09;;;17.55;56.71
21988;BME280;11158;53.404;-1.510;2023-05-09T03:53:39;99991.97;;;18.07;55.44
21988;BME280;11158;53.404;-1.510;2023-05-09T03:56:23;99995.63;;;18.30;54.47
21988;BME280;11158;53.404;-1.510;2023-05-09T03:59:08;99993.41;;;18.43;53.76
21988;BME280;11158;53.404;-1.510;2023-05-09T04:01:52;99988.25;;;18.59;53.53
21988;BME280;11158;53.404;-1.510;2023-05-09T04:04:37;99997.41;;;18.75;52.99
21988;BME280;11158;53.404;-1.510;2023-05-09T04:07:21;99987.38;;;18.53;53.44
21988;BME280;11158;53.404;-1.510;2023-05-09T04:10:06;99992.59;;;18.60;53.60
21988;BME280;11158;53.404;-1.510;2023-05-09T04:12:50;99982.66;;;18.66;52.97
21988;BME280;11158;53.404;-1.510;2023-05-09T04:15:34;99980.78;;;17.58;56.00
21988;BME280;11158;53.404;-1.510;2023-05-09T04:18:18;99986.50;;;18.02;55.00
21988;BME280;11158;53.404;-1.510;2023-05-09T04:21:03;99988.16;;;18.37;54.13
21988;BME280;11158;53.404;-1.510;2023-05-09T04:23:47;99992.34;;;18.28;53.97
21988;BME280;11158;53.404;-1.510;2023-05-09T04:26:31;99988.25;;;18.25;54.22
21988;BME280;11158;53.404;-1.510;2023-05-09T04:29:15;99978.44;;;17.90;55.19
21988;BME280;11158;53.404;-1.510;2023-05-09T04:32:02;99976.47;;;17.86;55.58
21988;BME280;11158;53.404;-1.510;2023-05-09T04:34:48;99981.94;;;17.62;55.75
21988;BME280;11158;53.404;-1.510;2023-05-09T04:37:32;99973.81;;;17.33;56.69
21988;BME280;11158;53.404;-1.510;2023-05-09T04:40:16;99985.03;;;17.02;58.14
21988;BME280;11158;53.404;-1.510;2023-05-09T04:43:00;99985.50;;;16.99;58.26
21988;BME280;11158;53.404;-1.510;2023-05-09T04:45:44;99986.69;;;16.91;58.37
21988;BME280;11158;53.404;-1.510;2023-05-09T04:48:29;99983.56;;;17.34;57.58
21988;BME280;11158;53.404;-1.510;2023-05-09T04:51:13;99974.78;;;17.56;57.08
21988;BME280;11158;53.404;-1.510;2023-05-09T04:53:57;99981.09;;;18.02;55.80
21988;BME280;11158;53.404;-1.510;2023-05-09T04:56:41;99977.09;;;18.38;54.56
21988;BME280;11158;53.404;-1.510;2023-05-09T04:59:25;99979.81;;;18.21;55.14
21988;BME280;11158;53.404;-1.510;2023-05-09T05:02:09;99965.63;;;18.65;54.61
21988;BME280;11158;53.404;-1.510;2023-05-09T05:04:54;99965.41;;;20.04;51.40
21988;BME280;11158;53.404;-1.510;2023-05-09T05:07:38;99967.03;;;20.00;50.19
21988;BME280;11158;53.404;-1.510;2023-05-09T05:10:22;99950.63;;;20.91;49.17
21988;BME280;11158;53.404;-1.510;2023-05-09T05:13:06;99943.41;;;22.47;45.42
21988;BME280;11158;53.404;-1.510;2023-05-09T05:15:50;99954.63;;;23.26;42.91
21988;BME280;11158;53.404;-1.510;2023-05-09T05:18:35;99940.31;;;23.99;41.59
21988;BME280;11158;53.404;-1.510;2023-05-09T05:21:19;99933.88;;;25.50;39.09
21988;BME280;11158;53.404;-1.510;2023-05-09T05:24:03;99920.25;;;25.64;37.30
21988;BME280;11158;53.404;-1.510;2023-05-09T05:26:48;99922.25;;;25.77;36.80
21988;BME280;11158;53.404;-1.510;2023-05-09T05:29:32;99925.00;;;26.76;35.84
21988;BME280;11158;53.404;-1.510;2023-05-09T05:32:16;99924.06;;;27.35;33.49
21988;BME280;11158;53.404;-1.510;2023-05-09T05:35:00;99923.16;;;25.91;35.88
21988;BME280;11158;53.404;-1.510;2023-05-09T05:37:45;99922.97;;;26.81;34.23
21988;BME280;11158;53.404;-1.510;2023-05-09T05:40:29;99913.03;;;28.08;32.49
21988;BME280;11158;53.404;-1.510;2023-05-09T05:43:13;99916.47;;;28.36;31.44
21988;BME280;11158;53.404;-1.510;2023-05-09T05:45:57;99922.00;;;25.36;35.68
21988;BME280;11158;53.404;-1.510;2023-05-09T05:48:41;99905.09;;;26.98;33.78
21988;BME280;11158;53.404;-1.510;2023-05-09T05:51:25;99909.25;;;27.59;32.49
21988;BME280;11158;53.404;-1.510;2023-05-09T05:54:09;99908.03;;;28.02;31.52
21988;BME280;11158;53.404;-1.510;2023-05-09T05:56:54;99908.00;;;28.95;30.31
21988;BME280;11158;53.404;-1.510;2023-05-09T05:59:38;99899.84;;;29.39;29.42
21988;BME280;11158;53.404;-1.510;2023-05-09T06:02:22;99896.22;;;29.03;29.40
21988;BME280;11158;53.404;-1.510;2023-05-09T06:05:07;99890.88;;;28.27;30.46
21988;BME280;11158;53.404;-1.510;2023-05-09T06:07:51;99896.03;;;28.51;30.43
21988;BME280;11158;53.404;-1.510;2023-05-09T06:10:35;99889.03;;;29.95;28.21
21988;BME280;11158;53.404;-1.510;2023-05-09T06:13:19;99894.72;;;29.72;27.48
21988;BME280;11158;53.404;-1.510;2023-05-09T06:16:03;99902.97;;;26.81;32.41
21988;BME280;11158;53.404;-1.510;2023-05-09T06:18:47;99902.38;;;26.37;33.99
21988;BME280;11158;53.404;-1.510;2023-05-09T06:21:32;99889.53;;;28.16;31.20
21988;BME280;11158;53.404;-1.510;2023-05-09T06:24:17;99887.38;;;29.50;28.89
21988;BME280;11158;53.404;-1.510;2023-05-09T06:27:02;99873.47;;;28.09;31.28
21988;BME280;11158;53.404;-1.510;2023-05-09T06:29:46;99878.19;;;28.17;31.20
21988;BME280;11158;53.404;-1.510;2023-05-09T06:32:30;99879.44;;;29.31;29.07
21988;BME280;11158;53.404;-1.510;2023-05-09T06:35:14;99880.59;;;29.30;28.45
21988;BME280;11158;53.404;-1.510;2023-05-09T06:37:58;99891.25;;;29.14;28.90
21988;BME280;11158;53.404;-1.510;2023-05-09T06:40:42;99885.44;;;31.69;25.82
21988;BME280;11158;53.404;-1.510;2023-05-09T06:43:26;99876.69;;;30.65;27.40
21988;BME280;11158;53.404;-1.510;2023-05-09T06:46:10;99889.44;;;30.79;26.47
21988;BME280;11158;53.404;-1.510;2023-05-09T06:48:54;99901.53;;;28.29;30.03
21988;BME280;11158;53.404;-1.510;2023-05-09T06:51:38;99912.53;;;25.85;33.44
21988;BME280;11158;53.404;-1.510;2023-05-09T06:54:22;99919.38;;;23.45;38.72
21988;BME280;11158;53.404;-1.510;2023-05-09T06:57:06;99917.47;;;23.46;38.46
21988;BME280;11158;53.404;-1.510;2023-05-09T06:59:50;99930.88;;;22.31;41.09
21988;BME280;11158;53.404;-1.510;2023-05-09T07:02:35;99933.84;;;21.93;42.30
21988;BME280;11158;53.404;-1.510;2023-05-09T07:05:19;99932.53;;;21.23;44.24
21988;BME280;11158;53.404;-1.510;2023-05-09T07:08:04;99945.91;;;19.75;47.20
21988;BME280;11158;53.404;-1.510;2023-05-09T07:10:48;99942.72;;;20.90;44.83
21988;BME280;11158;53.404;-1.510;2023-05-09T07:13:34;99948.84;;;21.18;44.39
21988;BME280;11158;53.404;-1.510;2023-05-09T07:16:19;99946.34;;;22.05;42.74
21988;BME280;11158;53.404;-1.510;2023-05-09T07:19:06;99943.88;;;22.80;40.77
21988;BME280;11158;53.404;-1.510;2023-05-09T07:21:50;99944.44;;;22.00;42.53
21988;BME280;11158;53.404;-1.510;2023-05-09T07:24:34;99951.28;;;22.18;41.53
21988;BME280;11158;53.404;-1.510;2023-05-09T07:27:18;99949.56;;;21.76;42.53
21988;BME280;11158;53.404;-1.510;2023-05-09T07:30:03;99956.59;;;21.46;43.45
21988;BME280;11158;53.404;-1.510;2023-05-09T07:32:47;99950.13;;;21.63;43.32
21988;BME280;11158;53.404;-1.510;2023-05-09T07:35:31;99944.44;;;21.06;42.66
21988;BME280;11158;53.404;-1.510;2023-05-09T07:38:15;99944.16;;;21.96;41.66
21988;BME280;11158;53.404;-1.510;2023-05-09T07:41:00;99927.34;;;22.41;40.89
21988;BME280;11158;53.404;-1.510;2023-05-09T07:43:45;99935.44;;;22.82;40.56
21988;BME280;11158;53.404;-1.510;2023-05-09T07:46:30;99938.13;;;21.64;43.10
21988;BME280;11158;53.404;-1.510;2023-05-09T07:49:14;99934.06;;;21.51;43.13
21988;BME280;11158;53.404;-1.510;2023-05-09T07:51:58;99926.13;;;20.81;44.96
21988;BME280;11158;53.404;-1.510;2023-05-09T07:54:43;99932.16;;;20.93;45.45
21988;BME280;11158;53.404;-1.510;2023-05-09T07:57:27;99927.84;;;20.55;45.94
21988;BME280;11158;53.404;-1.510;2023-05-09T08:00:12;99929.47;;;19.86;47.61
21988;BME280;11158;53.404;-1.510;2023-05-09T08:02:56;99923.19;;;20.13;47.10
21988;BME280;11158;53.404;-1.510;2023-05-09T08:05:41;99918.47;;;19.22;48.37
21988;BME280;11158;53.404;-1.510;2023-05-09T08:08:25;99918.59;;;19.59;47.69
21988;BME280;11158;53.404;-1.510;2023-05-09T08:11:09;99919.22;;;19.66;47.19
21988;BME280;11158;53.404;-1.510;2023-05-09T08:13:53;99924.38;;;19.19;47.77
21988;BME280;11158;53.404;-1.510;2023-05-09T08:16:38;99909.66;;;19.59;47.29
21988;BME280;11158;53.404;-1.510;2023-05-09T08:19:22;99913.69;;;19.56;47.20
21988;BME280;11158;53.404;-1.510;2023-05-09T08:22:15;99918.75;;;20.34;46.13
21988;BME280;11158;53.404;-1.510;2023-05-09T08:24:59;99913.84;;;19.99;45.37
21988;BME280;11158;53.404;-1.510;2023-05-09T08:27:43;99912.78;;;20.75;44.75
21988;BME280;11158;53.404;-1.510;2023-05-09T08:30:27;99917.88;;;20.66;44.20
21988;BME280;11158;53.404;-1.510;2023-05-09T08:33:12;99909.69;;;21.13;43.63
21988;BME280;11158;53.404;-1.510;2023-05-09T08:35:56;99916.78;;;21.20;43.92
21988;BME280;11158;53.404;-1.510;2023-05-09T08:38:40;99917.94;;;20.71;44.62
21988;BME280;11158;53.404;-1.510;2023-05-09T08:41:25;99916.66;;;20.46;44.93
21988;BME280;11158;53.404;-1.510;2023-05-09T08:44:13;99918.63;;;20.19;45.84
21988;BME280;11158;53.404;-1.510;2023-05-09T08:46:59;99911.50;;;20.50;45.42
21988;BME280;11158;53.404;-1.510;2023-05-09T08:49:44;99912.59;;;20.91;44.03
21988;BME280;11158;53.404;-1.510;2023-05-09T08:52:32;99912.78;;;20.75;44.91
21988;BME280;11158;53.404;-1.510;2023-05-09T08:55:16;99908.34;;;20.58;44.53
21988;BME280;11158;53.404;-1.510;2023-05-09T08:58:01;99911.41;;;20.77;44.18
21988;BME280;11158;53.404;-1.510;2023-05-09T09:00:47;99917.66;;;21.30;43.10
21988;BME280;11158;53.404;-1.510;2023-05-09T09:03:32;99907.69;;;21.67;42.10
21988;BME280;11158;53.404;-1.510;2023-05-09T09:06:16;99920.22;;;21.99;41.66
21988;BME280;11158;53.404;-1.510;2023-05-09T09:09:04;99919.88;;;21.44;42.38
21988;BME280;11158;53.404;-1.510;2023-05-09T09:11:49;99924.06;;;21.98;41.60
21988;BME280;11158;53.404;-1.510;2023-05-09T09:14:38;99921.81;;;20.85;43.80
21988;BME280;11158;53.404;-1.510;2023-05-09T09:17:27;99912.88;;;22.09;41.24
21988;BME280;11158;53.404;-1.510;2023-05-09T09:20:14;99904.38;;;22.77;39.67
21988;BME280;11158;53.404;-1.510;2023-05-09T09:23:02;99902.00;;;22.50;40.94
21988;BME280;11158;53.404;-1.510;2023-05-09T09:26:00;99884.66;;;23.56;40.12
21988;BME280;11158;53.404;-1.510;2023-05-09T09:28:44;99881.78;;;23.81;38.03
21988;BME280;11158;53.404;-1.510;2023-05-09T09:31:30;99895.19;;;22.17;40.73
21988;BME280;11158;53.404;-1.510;2023-05-09T09:34:19;99898.75;;;22.02;41.57
21988;BME280;11158;53.404;-1.510;2023-05-09T09:37:05;99901.97;;;22.55;41.05
21988;BME280;11158;53.404;-1.510;2023-05-09T09:39:53;99895.44;;;22.62;39.38
21988;BME280;11158;53.404;-1.510;2023-05-09T09:42:43;99890.88;;;22.31;40.09
21988;BME280;11158;53.404;-1.510;2023-05-09T09:45:27;99883.44;;;22.63;39.69
21988;BME280;11158;53.404;-1.510;2023-05-09T09:48:11;99885.13;;;22.17;39.60
21988;BME280;11158;53.404;-1.510;2023-05-09T09:50:55;99867.97;;;21.66;40.51
21988;BME280;11158;53.404;-1.510;2023-05-09T09:53:42;99872.69;;;21.02;42.19
21988;BME280;11158;53.404;-1.510;2023-05-09T09:56:45;99873.34;;;21.35;42.06
21988;BME280;11158;53.404;-1.510;2023-05-09T09:59:29;99870.13;;;21.43;42.01
21988;BME280;11158;53.404;-1.510;2023-05-09T10:02:13;99867.97;;;22.37;40.92
21988;BME280;11158;53.404;-1.510;2023-05-09T10:05:07;99855.00;;;22.89;38.76
21988;BME280;11158;53.404;-1.510;2023-05-09T10:07:55;99870.97;;;22.36;40.16
21988;BME280;11158;53.404;-1.510;2023-05-09T10:10:41;99857.22;;;22.82;38.88
21988;BME280;11158;53.404;-1.510;2023-05-09T10:13:27;99861.97;;;22.35;39.64
21988;BME280;11158;53.404;-1.510;2023-05-09T10:16:11;99866.03;;;22.53;39.15
21988;BME280;11158;53.404;-1.510;2023-05-09T10:18:56;99856.56;;;23.16;38.14
21988;BME280;11158;53.404;-1.510;2023-05-09T10:21:41;99859.59;;;23.04;38.07
21988;BME280;11158;53.404;-1.510;2023-05-09T10:24:28;99853.31;;;23.14;38.34
21988;BME280;11158;53.404;-1.510;2023-05-09T10:27:19;99848.66;;;24.22;36.64
21988;BME280;11158;53.404;-1.510;2023-05-09T10:30:12;99840.31;;;24.67;35.64
21988;BME280;11158;53.404;-1.510;2023-05-09T10:33:08;99832.00;;;25.72;33.57
21988;BME280;11158;53.404;-1.510;2023-05-09T10:35:57;99839.75;;;24.89;34.46
21988;BME280;11158;53.404;-1.510;2023-05-09T10:38:42;99835.06;;;24.71;34.70
21988;BME280;11158;53.404;-1.510;2023-05-09T10:41:26;99844.19;;;23.68;36.65
21988;BME280;11158;53.404;-1.510;2023-05-09T10:44:11;99840.63;;;23.33;37.36
21988;BME280;11158;53.404;-1.510;2023-05-09T10:46:56;99831.03;;;24.10;36.18
21988;BME280;11158;53.404;-1.510;2023-05-09T10:49:41;99829.47;;;24.33;35.37
21988;BME280;11158;53.404;-1.510;2023-05-09T10:52:30;99823.91;;;24.67;35.21
21988;BME280;11158;53.404;-1.510;2023-05-09T10:55:16;99833.19;;;24.66;34.60
21988;BME280;11158;53.404;-1.510;2023-05-09T10:58:17;99821.50;;;24.84;34.02
21988;BME280;11158;53.404;-1.510;2023-05-09T11:01:04;99811.13;;;25.43;32.72
21988;BME280;11158;53.404;-1.510;2023-05-09T11:03:56;99817.53;;;25.85;31.99
21988;BME280;11158;53.404;-1.510;2023-05-09T11:09:37;99814.47;;;25.21;33.36
21988;BME280;11158;53.404;-1.510;2023-05-09T11:12:24;99814.31;;;25.32;32.35
21988;BME280;11158;53.404;-1.510;2023-05-09T11:15:08;99808.53;;;25.85;32.23
21988;BME280;11158;53.404;-1.510;2023-05-09T11:18:09;99813.38;;;25.17;32.88
21988;BME280;11158;53.404;-1.510;2023-05-09T11:20:54;99804.78;;;24.67;32.52
21988;BME280;11158;53.404;-1.510;2023-05-09T11:23:38;99801.69;;;26.01;31.35
21988;BME280;11158;53.404;-1.510;2023-05-09T11:26:27;99802.63;;;26.10;30.50
21988;BME280;11158;53.404;-1.510;2023-05-09T11:29:13;99802.28;;;24.90;33.03
21988;BME280;11158;53.404;-1.510;2023-05-09T11:32:04;99801.94;;;26.19;31.98
21988;BME280;11158;53.404;-1.510;2023-05-09T11:34:50;99785.88;;;26.81;30.27
21988;BME280;11158;53.404;-1.510;2023-05-09T11:40:30;99803.91;;;23.94;35.68
21988;BME280;11158;53.404;-1.510;2023-05-09T11:43:15;99804.13;;;24.27;34.11
21988;BME280;11158;53.404;-1.510;2023-05-09T11:46:02;99800.69;;;24.88;33.58
21988;BME280;11158;53.404;-1.510;2023-05-09T11:48:47;99805.97;;;24.08;34.61
21988;BME280;11158;53.404;-1.510;2023-05-09T11:51:35;99810.06;;;23.71;34.28
21988;BME280;11158;53.404;-1.510;2023-05-09T11:54:22;99800.91;;;23.56;34.72
21988;BME280;11158;53.404;-1.510;2023-05-09T11:57:06;99808.94;;;22.98;36.10
21988;BME280;11158;53.404;-1.510;2023-05-09T11:59:51;99802.84;;;22.62;37.65
21988;BME280;11158;53.404;-1.510;2023-05-09T12:02:36;99815.16;;;22.38;38.44
21988;BME280;11158;53.404;-1.510;2023-05-09T12:05:21;99798.88;;;24.07;35.54
21988;BME280;11158;53.404;-1.510;2023-05-09T12:08:06;99796.97;;;23.78;35.37
21988;BME280;11158;53.404;-1.510;2023-05-09T12:10:50;99792.06;;;23.75;35.87
21988;BME280;11158;53.404;-1.510;2023-05-09T12:13:34;99793.78;;;24.24;34.79
21988;BME280;11158;53.404;-1.510;2023-05-09T12:16:19;99795.41;;;24.73;34.84
21988;BME280;11158;53.404;-1.510;2023-05-09T12:19:03;99786.56;;;24.09;35.93
21988;BME280;11158;53.404;-1.510;2023-05-09T12:21:59;99789.47;;;24.47;35.14
21988;BME280;11158;53.404;-1.510;2023-05-09T12:24:43;99784.22;;;23.63;35.86
21988;BME280;11158;53.404;-1.510;2023-05-09T12:27:27;99785.78;;;24.57;34.31
21988;BME280;11158;53.404;-1.510;2023-05-09T12:30:12;99782.09;;;24.18;34.54
21988;BME280;11158;53.404;-1.510;2023-05-09T12:32:59;99778.63;;;24.61;34.56
21988;BME280;11158;53.404;-1.510;2023-05-09T12:35:48;99781.22;;;24.71;34.88
21988;BME280;11158;53.404;-1.510;2023-05-09T12:38:53;99772.69;;;25.35;33.46
21988;BME280;11158;53.404;-1.510;2023-05-09T12:41:50;99766.88;;;25.88;31.77
21988;BME280;11158;53.404;-1.510;2023-05-09T12:44:35;99755.88;;;26.48;29.97
21988;BME280;11158;53.404;-1.510;2023-05-09T12:47:19;99756.75;;;25.56;31.81
21988;BME280;11158;53.404;-1.510;2023-05-09T12:50:05;99755.97;;;25.69;31.98
21988;BME280;11158;53.404;-1.510;2023-05-09T12:52:50;99752.59;;;25.25;32.93
21988;BME280;11158;53.404;-1.510;2023-05-09T12:55:39;99743.38;;;26.70;31.34
21988;BME280;11158;53.404;-1.510;2023-05-09T12:58:33;99736.31;;;27.82;28.60
21988;BME280;11158;53.404;-1.510;2023-05-09T13:01:18;99738.81;;;27.69;28.89
21988;BME280;11158;53.404;-1.510;2023-05-09T13:04:03;99747.00;;;25.82;32.18
21988;BME280;11158;53.404;-1.510;2023-05-09T13:06:57;99754.16;;;25.32;33.28
21988;BME280;11158;53.404;-1.510;2023-05-09T13:10:00;99746.81;;;25.92;31.73
21988;BME280;11158;53.404;-1.510;2023-05-09T13:12:45;99746.69;;;25.18;32.91
21988;BME280;11158;53.404;-1.510;2023-05-09T13:15:31;99729.91;;;24.68;33.61
21988;BME280;11158;53.404;-1.510;2023-05-09T13:18:16;99734.88;;;25.69;31.55
21988;BME280;11158;53.404;-1.510;2023-05-09T13:21:00;99742.16;;;25.60;31.33
21988;BME280;11158;53.404;-1.510;2023-05-09T13:23:44;99736.38;;;26.64;29.98
21988;BME280;11158;53.404;-1.510;2023-05-09T13:26:29;99743.28;;;26.33;30.25
21988;BME280;11158;53.404;-1.510;2023-05-09T13:29:12;99729.41;;;26.44;29.75
21988;BME280;11158;53.404;-1.510;2023-05-09T13:31:56;99739.22;;;26.31;29.08
21988;BME280;11158;53.404;-1.510;2023-05-09T13:34:41;99734.97;;;26.25;28.47
21988;BME280;11158;53.404;-1.510;2023-05-09T13:37:25;99723.19;;;26.38;28.39
21988;BME280;11158;53.404;-1.510;2023-05-09T13:40:11;99736.78;;;26.16;28.53
21988;BME280;11158;53.404;-1.510;2023-05-09T13:42:55;99731.72;;;26.64;28.33
21988;BME280;11158;53.404;-1.510;2023-05-09T13:45:39;99734.06;;;25.22;30.78
21988;BME280;11158;53.404;-1.510;2023-05-09T13:48:23;99734.72;;;25.47;31.03
21988;BME280;11158;53.404;-1.510;2023-05-09T13:51:07;99737.38;;;25.19;30.34
21988;BME280;11158;53.404;-1.510;2023-05-09T13:53:51;99739.44;;;24.90;30.74
21988;BME280;11158;53.404;-1.510;2023-05-09T13:56:35;99742.59;;;24.97;30.33
21988;BME280;11158;53.404;-1.510;2023-05-09T13:59:19;99741.47;;;25.36;30.42
21988;BME280;11158;53.404;-1.510;2023-05-09T14:02:03;99744.34;;;25.44;29.44
21988;BME280;11158;53.404;-1.510;2023-05-09T14:04:49;99738.78;;;24.79;30.56
21988;BME280;11158;53.404;-1.510;2023-05-09T14:07:33;99736.13;;;24.93;30.47
21988;BME280;11158;53.404;-1.510;2023-05-09T14:10:18;99732.03;;;24.71;30.42
21988;BME280;11158;53.404;-1.510;2023-05-09T14:13:02;99736.25;;;24.63;30.58
21988;BME280;11158;53.404;-1.510;2023-05-09T14:15:46;99735.22;;;24.35;31.54
21988;BME280;11158;53.404;-1.510;2023-05-09T14:18:30;99738.22;;;24.34;32.32
21988;BME280;11158;53.404;-1.510;2023-05-09T14:21:15;99738.69;;;24.84;30.91
21988;BME280;11158;53.404;-1.510;2023-05-09T14:23:59;99734.47;;;24.73;30.98
21988;BME280;11158;53.404;-1.510;2023-05-09T14:26:43;99734.28;;;24.88;30.76
21988;BME280;11158;53.404;-1.510;2023-05-09T14:29:28;99729.63;;;25.59;29.92
21988;BME280;11158;53.404;-1.510;2023-05-09T14:32:12;99721.72;;;24.68;31.11
21988;BME280;11158;53.404;-1.510;2023-05-09T14:34:57;99738.47;;;25.37;31.11
21988;BME280;11158;53.404;-1.510;2023-05-09T14:37:41;99729.63;;;24.45;32.47
21988;BME280;11158;53.404;-1.510;2023-05-09T14:40:26;99730.44;;;25.27;32.14